sensor_id;sensor_type;location;lat;lon;timestamp;P1;durP1;ratioP1;P2;durP2;ratioP2
55031;SDS011;40928;51.076;7.950;2023-04-06T00:02:23;8.88;;;3.35;;
55031;SDS011;40928;51.076;7.950;2023-04-06T00:04:49;6.65;;;3.40;;
55031;SDS011;40928;51.076;7.950;2023-04-06T00:07:14;9.25;;;3.83;;
55031;SDS011;40928;51.076;7.950;2023-04-06T00:09:40;5.40;;;2.65;;
55031;SDS011;40928;51.076;7.950;2023-04-06T00:12:06;6.78;;;2.88;;
55031;SDS011;40928;51.076;7.950;2023-04-06T00:14:31;4.97;;;2.63;;
55031;SDS011;40928;51.076;7.950;2023-04-06T00:16:57;4.63;;;2.90;;
55031;SDS011;40928;51.076;7.950;2023-04-06T00:19:22;5.28;;;3.15;;
55031;SDS011;40928;51.076;7.950;2023-04-06T00:21:48;6.05;;;3.20;;
55031;SDS011;40928;51.076;7.950;2023-04-06T00:24:13;7.50;;;2.85;;
55031;SDS011;40928;51.076;7.950;2023-04-06T00:26:39;5.18;;;3.13;;
55031;SDS011;40928;51.076;7.950;2023-04-06T00:29:04;5.95;;;3.33;;
55031;SDS011;40928;51.076;7.950;2023-04-06T00:31:30;8.15;;;3.88;;
55031;SDS011;40928;51.076;7.950;2023-04-06T00:33:55;10.93;;;4.38;;
55031;SDS011;40928;51.076;7.950;2023-04-06T00:36:21;7.97;;;4.25;;
55031;SDS011;40928;51.076;7.950;2023-04-06T00:38:46;7.38;;;4.13;;
55031;SDS011;40928;51.076;7.950;2023-04-06T00:41:12;7.50;;;4.22;;
55031;SDS011;40928;51.076;7.950;2023-04-06T00:43:38;7.75;;;3.70;;
55031;SDS011;40928;51.076;7.950;2023-04-06T00:46:04;9.77;;;4.38;;
55031;SDS011;40928;51.076;7.950;2023-04-06T00:48:30;11.35;;;4.03;;
55031;SDS011;40928;51.076;7.950;2023-04-06T00:50:57;7.95;;;4.45;;
55031;SDS011;40928;51.076;7.950;2023-04-06T00:53:22;10.80;;;4.47;;
55031;SDS011;40928;51.076;7.950;2023-04-06T00:55:49;15.27;;;5.22;;
55031;SDS011;40928;51.076;7.950;2023-04-06T00:58:15;10.25;;;4.75;;
55031;SDS011;40928;51.076;7.950;2023-04-06T01:00:48;10.00;;;4.22;;
55031;SDS011;40928;51.076;7.950;2023-04-06T01:03:17;8.95;;;4.38;;
55031;SDS011;40928;51.076;7.950;2023-04-06T01:05:43;11.00;;;5.30;;
55031;SDS011;40928;51.076;7.950;2023-04-06T01:08:22;12.55;;;5.05;;
55031;SDS011;40928;51.076;7.950;2023-04-06T01:10:52;14.05;;;5.00;;
55031;SDS011;40928;51.076;7.950;2023-04-06T01:13:24;11.07;;;4.18;;
55031;SDS011;40928;51.076;7.950;2023-04-06T01:15:53;15.20;;;5.47;;
55031;SDS011;40928;51.076;7.950;2023-04-06T01:18:44;11.48;;;4.25;;
55031;SDS011;40928;51.076;7.950;2023-04-06T01:21:17;10.18;;;4.57;;
55031;SDS011;40928;51.076;7.950;2023-04-06T01:24:03;9.55;;;3.67;;
55031;SDS011;40928;51.076;7.950;2023-04-06T01:26:40;10.82;;;4.85;;
55031;SDS011;40928;51.076;7.950;2023-04-06T01:29:07;16.00;;;5.35;;
55031;SDS011;40928;51.076;7.950;2023-04-06T01:31:33;10.35;;;5.03;;
55031;SDS011;40928;51.076;7.950;2023-04-06T01:33:58;13.60;;;4.72;;
55031;SDS011;40928;51.076;7.950;2023-04-06T01:36:25;11.95;;;4.07;;
55031;SDS011;40928;51.076;7.950;2023-04-06T01:38:59;8.50;;;4.75;;
55031;SDS011;40928;51.076;7.950;2023-04-06T01:41:32;9.45;;;4.75;;
55031;SDS011;40928;51.076;7.950;2023-04-06T01:43:57;10.13;;;4.60;;
55031;SDS011;40928;51.076;7.950;2023-04-06T01:46:26;12.25;;;4.88;;
55031;SDS011;40928;51.076;7.950;2023-04-06T01:48:52;11.85;;;4.75;;
55031;SDS011;40928;51.076;7.950;2023-04-06T01:51:29;9.70;;;3.97;;
55031;SDS011;40928;51.076;7.950;2023-04-06T01:53:59;11.10;;;4.43;;
55031;SDS011;40928;51.076;7.950;2023-04-06T01:56:47;8.73;;;4.38;;
55031;SDS011;40928;51.076;7.950;2023-04-06T01:59:28;11.02;;;4.38;;
55031;SDS011;40928;51.076;7.950;2023-04-06T02:01:54;10.88;;;4.53;;
55031;SDS011;40928;51.076;7.950;2023-04-06T02:04:21;10.05;;;4.57;;
55031;SDS011;40928;51.076;7.950;2023-04-06T02:06:52;13.80;;;5.10;;
55031;SDS011;40928;51.076;7.950;2023-04-06T02:09:21;12.75;;;4.50;;
55031;SDS011;40928;51.076;7.950;2023-04-06T02:11:47;11.18;;;5.43;;
55031;SDS011;40928;51.076;7.950;2023-04-06T02:14:12;8.95;;;4.18;;
55031;SDS011;40928;51.076;7.950;2023-04-06T02:16:43;10.75;;;4.55;;
55031;SDS011;40928;51.076;7.950;2023-04-06T02:19:08;6.38;;;3.47;;
55031;SDS011;40928;51.076;7.950;2023-04-06T02:21:34;7.35;;;3.72;;
55031;SDS011;40928;51.076;7.950;2023-04-06T02:23:59;12.82;;;4.68;;
55031;SDS011;40928;51.076;7.950;2023-04-06T02:26:25;9.07;;;4.63;;
55031;SDS011;40928;51.076;7.950;2023-04-06T02:28:50;12.18;;;4.25;;
55031;SDS011;40928;51.076;7.950;2023-04-06T02:31:16;9.82;;;4.57;;
55031;SDS011;40928;51.076;7.950;2023-04-06T02:33:43;7.22;;;3.85;;
55031;SDS011;40928;51.076;7.950;2023-04-06T02:36:12;10.85;;;4.72;;
55031;SDS011;40928;51.076;7.950;2023-04-06T02:38:37;10.77;;;4.53;;
55031;SDS011;40928;51.076;7.950;2023-04-06T02:41:03;6.35;;;3.80;;
55031;SDS011;40928;51.076;7.950;2023-04-06T02:43:28;11.80;;;5.38;;
55031;SDS011;40928;51.076;7.950;2023-04-06T02:46:03;8.05;;;4.05;;
55031;SDS011;40928;51.076;7.950;2023-04-06T02:48:32;7.75;;;3.88;;
55031;SDS011;40928;51.076;7.950;2023-04-06T02:51:01;9.07;;;5.28;;
55031;SDS011;40928;51.076;7.950;2023-04-06T02:53:26;10.27;;;4.40;;
55031;SDS011;40928;51.076;7.950;2023-04-06T02:55:53;8.65;;;3.88;;
55031;SDS011;40928;51.076;7.950;2023-04-06T02:58:18;11.02;;;4.15;;
55031;SDS011;40928;51.076;7.950;2023-04-06T03:00:48;7.30;;;4.03;;
55031;SDS011;40928;51.076;7.950;2023-04-06T03:03:14;13.95;;;4.28;;
55031;SDS011;40928;51.076;7.950;2023-04-06T03:05:41;9.35;;;3.92;;
55031;SDS011;40928;51.076;7.950;2023-04-06T03:08:08;8.45;;;3.83;;
55031;SDS011;40928;51.076;7.950;2023-04-06T03:10:40;11.52;;;4.13;;
55031;SDS011;40928;51.076;7.950;2023-04-06T03:13:05;8.18;;;4.43;;
55031;SDS011;40928;51.076;7.950;2023-04-06T03:15:47;6.50;;;3.17;;
55031;SDS011;40928;51.076;7.950;2023-04-06T03:18:17;6.05;;;3.50;;
55031;SDS011;40928;51.076;7.950;2023-04-06T03:20:47;7.47;;;4.35;;
55031;SDS011;40928;51.076;7.950;2023-04-06T03:23:14;10.10;;;4.25;;
55031;SDS011;40928;51.076;7.950;2023-04-06T03:25:42;7.63;;;4.50;;
55031;SDS011;40928;51.076;7.950;2023-04-06T03:28:11;7.80;;;4.07;;
55031;SDS011;40928;51.076;7.950;2023-04-06T03:30:46;6.80;;;3.60;;
55031;SDS011;40928;51.076;7.950;2023-04-06T03:33:14;12.27;;;4.28;;
55031;SDS011;40928;51.076;7.950;2023-04-06T03:35:50;10.80;;;4.18;;
55031;SDS011;40928;51.076;7.950;2023-04-06T03:38:16;10.45;;;4.63;;
55031;SDS011;40928;51.076;7.950;2023-04-06T03:40:42;8.45;;;4.30;;
55031;SDS011;40928;51.076;7.950;2023-04-06T03:43:07;6.80;;;3.65;;
55031;SDS011;40928;51.076;7.950;2023-04-06T03:45:35;13.23;;;4.07;;
55031;SDS011;40928;51.076;7.950;2023-04-06T03:48:01;11.75;;;4.45;;
55031;SDS011;40928;51.076;7.950;2023-04-06T03:50:31;11.25;;;4.07;;
55031;SDS011;40928;51.076;7.950;2023-04-06T03:52:58;13.02;;;5.20;;
55031;SDS011;40928;51.076;7.950;2023-04-06T03:55:23;13.40;;;4.65;;
55031;SDS011;40928;51.076;7.950;2023-04-06T03:57:49;9.63;;;4.63;;
55031;SDS011;40928;51.076;7.950;2023-04-06T04:00:14;14.10;;;4.78;;
55031;SDS011;40928;51.076;7.950;2023-04-06T04:02:40;11.90;;;4.88;;
55031;SDS011;40928;51.076;7.950;2023-04-06T04:05:06;14.00;;;5.10;;
55031;SDS011;40928;51.076;7.950;2023-04-06T04:07:31;14.50;;;4.32;;
55031;SDS011;40928;51.076;7.950;2023-04-06T04:09:57;7.72;;;3.97;;
55031;SDS011;40928;51.076;7.950;2023-04-06T04:12:22;13.95;;;5.40;;
55031;SDS011;40928;51.076;7.950;2023-04-06T04:14:48;17.20;;;4.97;;
55031;SDS011;40928;51.076;7.950;2023-04-06T04:17:13;14.80;;;5.32;;
55031;SDS011;40928;51.076;7.950;2023-04-06T04:19:39;14.25;;;6.05;;
55031;SDS011;40928;51.076;7.950;2023-04-06T04:22:05;13.18;;;5.57;;
55031;SDS011;40928;51.076;7.950;2023-04-06T04:24:34;13.40;;;5.00;;
55031;SDS011;40928;51.076;7.950;2023-04-06T04:27:00;14.18;;;5.85;;
55031;SDS011;40928;51.076;7.950;2023-04-06T04:29:28;13.55;;;5.78;;
55031;SDS011;40928;51.076;7.950;2023-04-06T04:31:58;16.35;;;5.95;;
55031;SDS011;40928;51.076;7.950;2023-04-06T04:34:24;11.13;;;6.45;;
55031;SDS011;40928;51.076;7.950;2023-04-06T04:36:50;19.75;;;6.93;;
55031;SDS011;40928;51.076;7.950;2023-04-06T04:39:24;16.60;;;5.45;;
55031;SDS011;40928;51.076;7.950;2023-04-06T04:41:56;12.27;;;4.93;;
55031;SDS011;40928;51.076;7.950;2023-04-06T04:44:22;12.40;;;5.07;;
55031;SDS011;40928;51.076;7.950;2023-04-06T04:46:49;17.58;;;5.97;;
55031;SDS011;40928;51.076;7.950;2023-04-06T04:49:17;11.00;;;5.35;;
55031;SDS011;40928;51.076;7.950;2023-04-06T04:51:43;13.82;;;5.60;;
55031;SDS011;40928;51.076;7.950;2023-04-06T04:54:11;14.05;;;6.13;;
55031;SDS011;40928;51.076;7.950;2023-04-06T04:56:38;10.70;;;5.38;;
55031;SDS011;40928;51.076;7.950;2023-04-06T04:59:15;7.40;;;4.38;;
55031;SDS011;40928;51.076;7.950;2023-04-06T05:01:48;13.23;;;4.60;;
55031;SDS011;40928;51.076;7.950;2023-04-06T05:04:13;10.73;;;4.85;;
55031;SDS011;40928;51.076;7.950;2023-04-06T05:06:39;9.80;;;4.93;;
55031;SDS011;40928;51.076;7.950;2023-04-06T05:09:05;23.15;;;5.75;;
55031;SDS011;40928;51.076;7.950;2023-04-06T05:11:31;11.77;;;4.75;;
55031;SDS011;40928;51.076;7.950;2023-04-06T05:13:59;11.40;;;5.32;;
55031;SDS011;40928;51.076;7.950;2023-04-06T05:16:25;12.90;;;5.35;;
55031;SDS011;40928;51.076;7.950;2023-04-06T05:18:51;11.63;;;4.68;;
55031;SDS011;40928;51.076;7.950;2023-04-06T05:21:18;17.38;;;6.05;;
55031;SDS011;40928;51.076;7.950;2023-04-06T05:24:10;7.57;;;4.57;;
55031;SDS011;40928;51.076;7.950;2023-04-06T05:26:36;11.70;;;4.65;;
55031;SDS011;40928;51.076;7.950;2023-04-06T05:29:09;10.55;;;5.82;;
55031;SDS011;40928;51.076;7.950;2023-04-06T05:31:37;10.98;;;5.30;;
55031;SDS011;40928;51.076;7.950;2023-04-06T05:34:02;10.43;;;4.75;;
55031;SDS011;40928;51.076;7.950;2023-04-06T05:36:34;11.25;;;5.60;;
55031;SDS011;40928;51.076;7.950;2023-04-06T05:39:05;8.00;;;5.00;;
55031;SDS011;40928;51.076;7.950;2023-04-06T05:41:39;18.08;;;6.35;;
55031;SDS011;40928;51.076;7.950;2023-04-06T05:44:07;9.45;;;5.40;;
55031;SDS011;40928;51.076;7.950;2023-04-06T05:46:32;21.98;;;6.32;;
55031;SDS011;40928;51.076;7.950;2023-04-06T05:48:59;15.13;;;5.82;;
55031;SDS011;40928;51.076;7.950;2023-04-06T05:51:29;26.60;;;7.18;;
55031;SDS011;40928;51.076;7.950;2023-04-06T05:53:54;20.13;;;6.97;;
55031;SDS011;40928;51.076;7.950;2023-04-06T05:56:21;23.55;;;7.38;;
55031;SDS011;40928;51.076;7.950;2023-04-06T05:58:46;22.42;;;8.52;;
55031;SDS011;40928;51.076;7.950;2023-04-06T06:01:16;22.33;;;10.05;;
55031;SDS011;40928;51.076;7.950;2023-04-06T06:03:45;22.25;;;9.48;;
55031;SDS011;40928;51.076;7.950;2023-04-06T06:06:10;41.95;;;16.55;;
55031;SDS011;40928;51.076;7.950;2023-04-06T06:08:48;46.10;;;17.13;;
55031;SDS011;40928;51.076;7.950;2023-04-06T06:11:15;33.13;;;10.20;;
55031;SDS011;40928;51.076;7.950;2023-04-06T06:13:41;26.55;;;12.13;;
55031;SDS011;40928;51.076;7.950;2023-04-06T06:16:08;30.67;;;12.68;;
55031;SDS011;40928;51.076;7.950;2023-04-06T06:18:40;27.77;;;12.75;;
55031;SDS011;40928;51.076;7.950;2023-04-06T06:21:06;19.88;;;9.55;;
55031;SDS011;40928;51.076;7.950;2023-04-06T06:23:32;26.33;;;11.85;;
55031;SDS011;40928;51.076;7.950;2023-04-06T06:25:58;27.23;;;11.27;;
55031;SDS011;40928;51.076;7.950;2023-04-06T06:28:24;25.80;;;9.30;;
55031;SDS011;40928;51.076;7.950;2023-04-06T06:30:50;17.60;;;9.00;;
55031;SDS011;40928;51.076;7.950;2023-04-06T06:33:20;7.93;;;3.70;;
55031;SDS011;40928;51.076;7.950;2023-04-06T06:35:48;10.05;;;4.28;;
55031;SDS011;40928;51.076;7.950;2023-04-06T06:38:13;5.82;;;3.25;;
55031;SDS011;40928;51.076;7.950;2023-04-06T06:40:40;6.05;;;3.08;;
55031;SDS011;40928;51.076;7.950;2023-04-06T06:43:06;9.05;;;4.18;;
55031;SDS011;40928;51.076;7.950;2023-04-06T06:45:54;4.57;;;3.05;;
55031;SDS011;40928;51.076;7.950;2023-04-06T06:48:20;10.27;;;4.03;;
55031;SDS011;40928;51.076;7.950;2023-04-06T06:50:46;9.00;;;4.03;;
55031;SDS011;40928;51.076;7.950;2023-04-06T06:53:13;6.47;;;2.95;;
55031;SDS011;40928;51.076;7.950;2023-04-06T06:55:38;7.57;;;3.45;;
55031;SDS011;40928;51.076;7.950;2023-04-06T06:58:04;8.93;;;3.42;;
55031;SDS011;40928;51.076;7.950;2023-04-06T07:00:31;6.00;;;3.63;;
55031;SDS011;40928;51.076;7.950;2023-04-06T07:02:57;7.78;;;3.42;;
55031;SDS011;40928;51.076;7.950;2023-04-06T07:05:22;8.50;;;3.83;;
55031;SDS011;40928;51.076;7.950;2023-04-06T07:07:48;10.95;;;4.38;;
55031;SDS011;40928;51.076;7.950;2023-04-06T07:10:14;7.95;;;3.67;;
55031;SDS011;40928;51.076;7.950;2023-04-06T07:12:39;7.25;;;3.88;;
55031;SDS011;40928;51.076;7.950;2023-04-06T07:15:05;8.40;;;3.95;;
55031;SDS011;40928;51.076;7.950;2023-04-06T07:17:32;8.52;;;3.88;;
55031;SDS011;40928;51.076;7.950;2023-04-06T07:19:58;7.85;;;4.05;;
55031;SDS011;40928;51.076;7.950;2023-04-06T07:22:24;11.75;;;4.47;;
55031;SDS011;40928;51.076;7.950;2023-04-06T07:24:51;8.75;;;4.68;;
55031;SDS011;40928;51.076;7.950;2023-04-06T07:27:17;8.05;;;4.30;;
55031;SDS011;40928;51.076;7.950;2023-04-06T07:29:44;8.25;;;4.32;;
55031;SDS011;40928;51.076;7.950;2023-04-06T07:32:10;8.07;;;4.13;;
55031;SDS011;40928;51.076;7.950;2023-04-06T07:34:38;9.65;;;4.30;;
55031;SDS011;40928;51.076;7.950;2023-04-06T07:37:05;8.43;;;4.35;;
55031;SDS011;40928;51.076;7.950;2023-04-06T07:39:31;10.75;;;4.60;;
55031;SDS011;40928;51.076;7.950;2023-04-06T07:41:58;9.90;;;4.38;;
55031;SDS011;40928;51.076;7.950;2023-04-06T07:44:23;10.63;;;4.68;;
55031;SDS011;40928;51.076;7.950;2023-04-06T07:46:49;11.50;;;4.57;;
55031;SDS011;40928;51.076;7.950;2023-04-06T07:49:18;10.15;;;4.60;;
55031;SDS011;40928;51.076;7.950;2023-04-06T07:51:46;11.27;;;4.82;;
55031;SDS011;40928;51.076;7.950;2023-04-06T07:54:12;9.15;;;4.80;;
55031;SDS011;40928;51.076;7.950;2023-04-06T07:56:37;9.57;;;4.57;;
55031;SDS011;40928;51.076;7.950;2023-04-06T07:59:03;17.67;;;5.05;;
55031;SDS011;40928;51.076;7.950;2023-04-06T08:01:28;8.98;;;4.65;;
55031;SDS011;40928;51.076;7.950;2023-04-06T08:03:55;9.98;;;4.78;;
55031;SDS011;40928;51.076;7.950;2023-04-06T08:06:21;15.15;;;6.03;;
55031;SDS011;40928;51.076;7.950;2023-04-06T08:08:46;12.48;;;5.10;;
55031;SDS011;40928;51.076;7.950;2023-04-06T08:11:12;10.40;;;4.65;;
55031;SDS011;40928;51.076;7.950;2023-04-06T08:13:38;13.05;;;5.30;;
55031;SDS011;40928;51.076;7.950;2023-04-06T08:16:03;9.38;;;5.32;;
55031;SDS011;40928;51.076;7.950;2023-04-06T08:18:29;9.73;;;5.15;;
55031;SDS011;40928;51.076;7.950;2023-04-06T08:20:55;13.02;;;5.25;;
55031;SDS011;40928;51.076;7.950;2023-04-06T08:23:21;17.17;;;5.55;;
55031;SDS011;40928;51.076;7.950;2023-04-06T08:25:47;8.40;;;4.88;;
55031;SDS011;40928;51.076;7.950;2023-04-06T08:28:12;9.82;;;5.05;;
55031;SDS011;40928;51.076;7.950;2023-04-06T08:30:41;13.48;;;5.75;;
55031;SDS011;40928;51.076;7.950;2023-04-06T08:33:08;11.18;;;5.55;;
55031;SDS011;40928;51.076;7.950;2023-04-06T08:35:34;11.95;;;6.18;;
55031;SDS011;40928;51.076;7.950;2023-04-06T08:38:00;13.90;;;6.00;;
55031;SDS011;40928;51.076;7.950;2023-04-06T08:40:26;9.52;;;5.05;;
55031;SDS011;40928;51.076;7.950;2023-04-06T08:42:54;12.73;;;5.70;;
55031;SDS011;40928;51.076;7.950;2023-04-06T08:45:20;16.48;;;6.32;;
55031;SDS011;40928;51.076;7.950;2023-04-06T08:47:47;11.13;;;5.47;;
55031;SDS011;40928;51.076;7.950;2023-04-06T08:50:15;15.32;;;7.18;;
55031;SDS011;40928;51.076;7.950;2023-04-06T08:52:43;13.20;;;6.07;;
55031;SDS011;40928;51.076;7.950;2023-04-06T08:55:09;10.25;;;5.63;;
55031;SDS011;40928;51.076;7.950;2023-04-06T08:57:35;14.07;;;6.53;;
55031;SDS011;40928;51.076;7.950;2023-04-06T09:00:01;13.40;;;6.10;;
55031;SDS011;40928;51.076;7.950;2023-04-06T09:02:27;19.80;;;7.22;;
55031;SDS011;40928;51.076;7.950;2023-04-06T09:04:53;10.25;;;5.70;;
55031;SDS011;40928;51.076;7.950;2023-04-06T09:07:19;13.95;;;6.70;;
55031;SDS011;40928;51.076;7.950;2023-04-06T09:09:45;14.98;;;6.90;;
55031;SDS011;40928;51.076;7.950;2023-04-06T09:14:53;12.85;;;6.30;;
55031;SDS011;40928;51.076;7.950;2023-04-06T09:17:22;12.35;;;6.85;;
55031;SDS011;40928;51.076;7.950;2023-04-06T09:19:48;16.45;;;7.13;;
55031;SDS011;40928;51.076;7.950;2023-04-06T09:22:16;19.55;;;5.93;;
55031;SDS011;40928;51.076;7.950;2023-04-06T09:24:45;16.67;;;7.05;;
55031;SDS011;40928;51.076;7.950;2023-04-06T09:27:12;12.05;;;6.82;;
55031;SDS011;40928;51.076;7.950;2023-04-06T09:29:39;14.93;;;7.25;;
55031;SDS011;40928;51.076;7.950;2023-04-06T09:32:06;13.80;;;7.13;;
55031;SDS011;40928;51.076;7.950;2023-04-06T09:34:32;16.83;;;7.50;;
55031;SDS011;40928;51.076;7.950;2023-04-06T09:36:59;18.70;;;8.55;;
55031;SDS011;40928;51.076;7.950;2023-04-06T09:39:24;15.30;;;8.10;;
55031;SDS011;40928;51.076;7.950;2023-04-06T09:41:51;16.25;;;8.27;;
55031;SDS011;40928;51.076;7.950;2023-04-06T09:44:17;14.73;;;8.05;;
55031;SDS011;40928;51.076;7.950;2023-04-06T09:46:44;20.05;;;8.60;;
55031;SDS011;40928;51.076;7.950;2023-04-06T09:49:11;15.98;;;7.43;;
55031;SDS011;40928;51.076;7.950;2023-04-06T09:51:39;15.57;;;8.20;;
55031;SDS011;40928;51.076;7.950;2023-04-06T09:54:07;16.48;;;7.70;;
55031;SDS011;40928;51.076;7.950;2023-04-06T10:01:55;16.13;;;7.80;;
55031;SDS011;40928;51.076;7.950;2023-04-06T10:06:58;15.20;;;7.45;;
55031;SDS011;40928;51.076;7.950;2023-04-06T10:09:25;17.88;;;7.75;;
55031;SDS011;40928;51.076;7.950;2023-04-06T10:12:01;11.75;;;6.40;;
55031;SDS011;40928;51.076;7.950;2023-04-06T10:14:28;14.13;;;7.20;;
55031;SDS011;40928;51.076;7.950;2023-04-06T10:16:55;12.95;;;6.68;;
55031;SDS011;40928;51.076;7.950;2023-04-06T10:19:25;13.18;;;6.68;;
55031;SDS011;40928;51.076;7.950;2023-04-06T10:21:55;31.10;;;7.38;;
55031;SDS011;40928;51.076;7.950;2023-04-06T10:24:24;14.38;;;7.35;;
55031;SDS011;40928;51.076;7.950;2023-04-06T10:27:02;14.45;;;7.15;;
55031;SDS011;40928;51.076;7.950;2023-04-06T10:29:40;17.42;;;7.32;;
55031;SDS011;40928;51.076;7.950;2023-04-06T10:32:08;12.80;;;6.90;;
55031;SDS011;40928;51.076;7.950;2023-04-06T10:34:34;12.57;;;6.40;;
55031;SDS011;40928;51.076;7.950;2023-04-06T10:37:10;12.45;;;6.55;;
55031;SDS011;40928;51.076;7.950;2023-04-06T10:39:40;11.93;;;6.20;;
55031;SDS011;40928;51.076;7.950;2023-04-06T10:42:11;18.63;;;6.65;;
55031;SDS011;40928;51.076;7.950;2023-04-06T10:44:41;15.85;;;6.30;;
55031;SDS011;40928;51.076;7.950;2023-04-06T10:47:15;11.35;;;6.07;;
55031;SDS011;40928;51.076;7.950;2023-04-06T10:49:42;12.95;;;6.43;;
55031;SDS011;40928;51.076;7.950;2023-04-06T10:52:07;15.45;;;6.57;;
55031;SDS011;40928;51.076;7.950;2023-04-06T10:54:33;9.25;;;5.18;;
55031;SDS011;40928;51.076;7.950;2023-04-06T10:57:00;13.65;;;6.30;;
55031;SDS011;40928;51.076;7.950;2023-04-06T10:59:28;10.95;;;5.25;;
55031;SDS011;40928;51.076;7.950;2023-04-06T11:01:53;14.00;;;5.97;;
55031;SDS011;40928;51.076;7.950;2023-04-06T11:04:20;12.63;;;6.15;;
55031;SDS011;40928;51.076;7.950;2023-04-06T11:06:47;14.32;;;6.07;;
55031;SDS011;40928;51.076;7.950;2023-04-06T11:09:25;10.02;;;5.38;;
55031;SDS011;40928;51.076;7.950;2023-04-06T11:11:52;11.07;;;5.53;;
55031;SDS011;40928;51.076;7.950;2023-04-06T11:14:18;12.60;;;6.57;;
55031;SDS011;40928;51.076;7.950;2023-04-06T11:16:45;12.98;;;6.38;;
55031;SDS011;40928;51.076;7.950;2023-04-06T11:19:12;11.23;;;5.78;;
55031;SDS011;40928;51.076;7.950;2023-04-06T11:26:49;11.90;;;6.53;;
55031;SDS011;40928;51.076;7.950;2023-04-06T11:29:22;13.10;;;5.70;;
55031;SDS011;40928;51.076;7.950;2023-04-06T11:31:49;11.95;;;5.90;;
55031;SDS011;40928;51.076;7.950;2023-04-06T11:34:20;14.27;;;6.05;;
55031;SDS011;40928;51.076;7.950;2023-04-06T11:36:47;12.80;;;6.55;;
55031;SDS011;40928;51.076;7.950;2023-04-06T11:39:20;22.02;;;8.52;;
55031;SDS011;40928;51.076;7.950;2023-04-06T11:41:50;17.95;;;7.20;;
55031;SDS011;40928;51.076;7.950;2023-04-06T11:44:31;15.07;;;6.32;;
55031;SDS011;40928;51.076;7.950;2023-04-06T11:46:56;12.80;;;6.15;;
55031;SDS011;40928;51.076;7.950;2023-04-06T11:49:26;13.75;;;5.75;;
55031;SDS011;40928;51.076;7.950;2023-04-06T11:51:53;11.90;;;5.97;;
55031;SDS011;40928;51.076;7.950;2023-04-06T11:54:28;15.13;;;6.50;;
55031;SDS011;40928;51.076;7.950;2023-04-06T11:56:57;14.63;;;6.55;;
55031;SDS011;40928;51.076;7.950;2023-04-06T11:59:23;16.88;;;6.75;;
55031;SDS011;40928;51.076;7.950;2023-04-06T12:01:48;14.32;;;6.85;;
55031;SDS011;40928;51.076;7.950;2023-04-06T12:04:14;12.30;;;6.63;;
55031;SDS011;40928;51.076;7.950;2023-04-06T12:06:40;13.60;;;6.20;;
55031;SDS011;40928;51.076;7.950;2023-04-06T12:09:05;13.60;;;6.40;;
55031;SDS011;40928;51.076;7.950;2023-04-06T12:11:31;11.57;;;6.68;;
55031;SDS011;40928;51.076;7.950;2023-04-06T12:13:56;11.57;;;6.45;;
55031;SDS011;40928;51.076;7.950;2023-04-06T12:16:22;12.43;;;6.35;;
55031;SDS011;40928;51.076;7.950;2023-04-06T12:18:47;13.50;;;6.85;;
55031;SDS011;40928;51.076;7.950;2023-04-06T12:21:13;11.20;;;6.10;;
55031;SDS011;40928;51.076;7.950;2023-04-06T12:23:38;11.48;;;6.68;;
55031;SDS011;40928;51.076;7.950;2023-04-06T12:26:04;12.18;;;6.85;;
55031;SDS011;40928;51.076;7.950;2023-04-06T12:28:29;14.43;;;6.53;;
55031;SDS011;40928;51.076;7.950;2023-04-06T12:30:55;15.68;;;7.03;;
55031;SDS011;40928;51.076;7.950;2023-04-06T12:33:20;11.30;;;6.63;;
55031;SDS011;40928;51.076;7.950;2023-04-06T12:35:46;15.10;;;6.72;;
55031;SDS011;40928;51.076;7.950;2023-04-06T12:38:12;11.82;;;6.47;;
55031;SDS011;40928;51.076;7.950;2023-04-06T12:40:38;12.70;;;6.80;;
55031;SDS011;40928;51.076;7.950;2023-04-06T12:43:04;12.75;;;6.65;;
55031;SDS011;40928;51.076;7.950;2023-04-06T12:45:32;13.95;;;6.47;;
55031;SDS011;40928;51.076;7.950;2023-04-06T12:47:58;13.50;;;6.45;;
55031;SDS011;40928;51.076;7.950;2023-04-06T12:50:23;12.77;;;6.55;;
55031;SDS011;40928;51.076;7.950;2023-04-06T12:52:49;12.48;;;6.95;;
55031;SDS011;40928;51.076;7.950;2023-04-06T12:55:15;16.55;;;6.88;;
55031;SDS011;40928;51.076;7.950;2023-04-06T12:57:41;12.75;;;7.00;;
55031;SDS011;40928;51.076;7.950;2023-04-06T13:00:06;14.68;;;6.00;;
55031;SDS011;40928;51.076;7.950;2023-04-06T13:02:32;13.20;;;6.80;;
55031;SDS011;40928;51.076;7.950;2023-04-06T13:04:58;13.55;;;7.40;;
55031;SDS011;40928;51.076;7.950;2023-04-06T13:07:23;12.45;;;6.90;;
55031;SDS011;40928;51.076;7.950;2023-04-06T13:09:49;13.20;;;6.55;;
55031;SDS011;40928;51.076;7.950;2023-04-06T13:12:15;13.57;;;6.30;;
55031;SDS011;40928;51.076;7.950;2023-04-06T13:14:41;12.05;;;7.00;;
55031;SDS011;40928;51.076;7.950;2023-04-06T13:17:06;12.95;;;6.93;;
55031;SDS011;40928;51.076;7.950;2023-04-06T13:19:32;15.80;;;7.10;;
55031;SDS011;40928;51.076;7.950;2023-04-06T13:21:58;14.30;;;6.63;;
55031;SDS011;40928;51.076;7.950;2023-04-06T13:24:23;13.50;;;6.80;;
55031;SDS011;40928;51.076;7.950;2023-04-06T13:26:49;13.68;;;6.45;;
55031;SDS011;40928;51.076;7.950;2023-04-06T13:29:15;12.65;;;6.57;;
55031;SDS011;40928;51.076;7.950;2023-04-06T13:31:40;12.35;;;6.65;;
55031;SDS011;40928;51.076;7.950;2023-04-06T13:34:06;10.85;;;6.47;;
55031;SDS011;40928;51.076;7.950;2023-04-06T13:36:31;13.23;;;6.55;;
55031;SDS011;40928;51.076;7.950;2023-04-06T13:39:00;15.88;;;8.10;;
55031;SDS011;40928;51.076;7.950;2023-04-06T13:41:29;16.33;;;7.03;;
55031;SDS011;40928;51.076;7.950;2023-04-06T13:43:55;14.40;;;6.47;;
55031;SDS011;40928;51.076;7.950;2023-04-06T13:46:21;13.75;;;5.78;;
55031;SDS011;40928;51.076;7.950;2023-04-06T13:48:48;12.68;;;6.15;;
55031;SDS011;40928;51.076;7.950;2023-04-06T13:51:14;11.15;;;6.47;;
55031;SDS011;40928;51.076;7.950;2023-04-06T13:53:40;10.13;;;6.38;;
55031;SDS011;40928;51.076;7.950;2023-04-06T13:56:06;11.73;;;6.18;;
55031;SDS011;40928;51.076;7.950;2023-04-06T13:58:32;11.02;;;5.85;;
55031;SDS011;40928;51.076;7.950;2023-04-06T14:01:04;12.90;;;5.68;;
55031;SDS011;40928;51.076;7.950;2023-04-06T14:03:38;11.60;;;5.72;;
55031;SDS011;40928;51.076;7.950;2023-04-06T14:06:10;9.98;;;6.07;;
55031;SDS011;40928;51.076;7.950;2023-04-06T14:08:37;11.77;;;6.03;;
55031;SDS011;40928;51.076;7.950;2023-04-06T14:11:02;11.35;;;5.63;;
55031;SDS011;40928;51.076;7.950;2023-04-06T14:13:28;11.73;;;5.82;;
55031;SDS011;40928;51.076;7.950;2023-04-06T14:15:53;10.65;;;5.13;;
55031;SDS011;40928;51.076;7.950;2023-04-06T14:18:20;7.90;;;5.05;;
55031;SDS011;40928;51.076;7.950;2023-04-06T14:20:53;13.02;;;5.70;;
55031;SDS011;40928;51.076;7.950;2023-04-06T14:23:19;11.35;;;5.28;;
55031;SDS011;40928;51.076;7.950;2023-04-06T14:25:45;8.35;;;4.35;;
55031;SDS011;40928;51.076;7.950;2023-04-06T14:28:11;12.65;;;5.38;;
55031;SDS011;40928;51.076;7.950;2023-04-06T14:30:37;8.05;;;4.63;;
55031;SDS011;40928;51.076;7.950;2023-04-06T14:33:03;11.52;;;5.13;;
55031;SDS011;40928;51.076;7.950;2023-04-06T14:35:28;8.30;;;4.63;;
55031;SDS011;40928;51.076;7.950;2023-04-06T14:37:57;6.50;;;3.40;;
55031;SDS011;40928;51.076;7.950;2023-04-06T14:40:23;7.22;;;3.63;;
55031;SDS011;40928;51.076;7.950;2023-04-06T14:42:49;7.70;;;3.92;;
55031;SDS011;40928;51.076;7.950;2023-04-06T14:45:16;7.53;;;3.90;;
55031;SDS011;40928;51.076;7.950;2023-04-06T14:47:44;7.55;;;4.13;;
55031;SDS011;40928;51.076;7.950;2023-04-06T14:50:10;9.52;;;3.88;;
55031;SDS011;40928;51.076;7.950;2023-04-06T14:52:36;9.38;;;3.03;;
55031;SDS011;40928;51.076;7.950;2023-04-06T14:55:02;9.23;;;3.17;;
55031;SDS011;40928;51.076;7.950;2023-04-06T14:57:28;8.68;;;3.50;;